Time;durP1;ratioP1;P1;durP2;ratioP2;P2;SDS_P1;SDS_P2;PMS_P1;PMS_P2;Temp;Humidity;BMP_temperature;BMP_pressure;BME280_temperature;BME280_humidity;BME280_pressure;Samples;Min_cycle;Max_cycle;Signal;HPM_P1;HPM_P2
2023/06/07 00:00:41;;;;;;;11.77;10.18;;;21.20;98.40;;;;;;6215659;23;20358;-80
2023/06/07 00:03:09;;;;;;;12.93;10.98;;;21.20;98.40;;;;;;6215912;23;20027;-81
2023/06/07 00:05:37;;;;;;;12.45;11.15;;;21.20;98.40;;;;;;6189002;23;20012;-81
2023/06/07 00:08:04;;;;;;;13.68;11.50;;;21.20;98.30;;;;;;6215890;23;20000;-81
2023/06/07 00:10:30;;;;;;;13.15;11.00;;;21.20;98.30;;;;;;6215821;23;20005;-80
2023/06/07 00:12:55;;;;;;;14.15;11.73;;;21.20;98.30;;;;;;6188257;23;20435;-80
2023/06/07 00:15:21;;;;;;;13.73;10.90;;;21.20;98.30;;;;;;6216330;23;20106;-80
2023/06/07 00:17:47;;;;;;;14.60;12.13;;;21.20;98.30;;;;;;6216113;23;20004;-81
2023/06/07 00:20:14;;;;;;;15.10;11.98;;;21.10;98.30;;;;;;6216801;23;20005;-81
2023/06/07 00:22:40;;;;;;;14.90;12.10;;;21.10;98.20;;;;;;6216354;23;20008;-81
2023/06/07 00:25:07;;;;;;;13.75;11.55;;;21.10;98.20;;;;;;6215834;23;20005;-81
2023/06/07 00:27:32;;;;;;;14.32;12.07;;;21.10;98.40;;;;;;6216462;23;20450;-81
2023/06/07 00:29:58;;;;;;;14.85;12.25;;;21.10;98.20;;;;;;6215115;23;20012;-81
2023/06/07 00:32:24;;;;;;;12.48;11.05;;;21.10;98.30;;;;;;6215729;23;20000;-81
2023/06/07 00:34:50;;;;;;;13.10;11.65;;;21.10;98.30;;;;;;6215869;23;20390;-81
2023/06/07 00:37:15;;;;;;;15.27;11.90;;;21.10;98.30;;;;;;6216320;23;20427;-81
2023/06/07 00:39:41;;;;;;;14.35;12.55;;;21.10;98.30;;;;;;6216054;23;20028;-81
2023/06/07 00:42:07;;;;;;;13.70;12.20;;;21.10;98.30;;;;;;6216350;23;20011;-80
2023/06/07 00:44:33;;;;;;;12.30;10.88;;;21.00;98.30;;;;;;6215464;23;20009;-79
2023/06/07 00:47:01;;;;;;;12.63;10.75;;;21.10;98.30;;;;;;6215853;23;20076;-80
2023/06/07 00:49:27;;;;;;;14.15;11.68;;;21.00;98.30;;;;;;6216221;23;20423;-80
2023/06/07 00:51:53;;;;;;;12.32;11.02;;;21.00;98.30;;;;;;6215826;23;20000;-80
2023/06/07 00:54:19;;;;;;;13.38;10.77;;;21.00;98.30;;;;;;6189073;23;20007;-80
2023/06/07 00:56:50;;;;;;;14.15;10.73;;;21.00;98.40;;;;;;6189467;23;20000;-80
2023/06/07 00:59:19;;;;;;;;;;;21.00;98.30;;;;;;6216610;23;20004;-80
2023/06/07 01:01:48;;;;;;;12.23;10.18;;;21.00;98.30;;;;;;6188925;23;19979;-80
2023/06/07 01:04:14;;;;;;;12.82;10.20;;;21.00;98.30;;;;;;6215958;23;20032;-80
2023/06/07 01:06:40;;;;;;;11.60;10.32;;;21.00;98.40;;;;;;6215143;23;20799;-80
2023/06/07 01:09:12;;;;;;;11.70;9.13;;;21.00;98.40;;;;;;6215703;23;20039;-80
2023/06/07 01:11:41;;;;;;;12.80;9.90;;;21.00;98.40;;;;;;6215157;23;20004;-81
2023/06/07 01:14:08;;;;;;;11.80;9.05;;;21.00;98.40;;;;;;6215292;23;19996;-81
2023/06/07 01:16:35;;;;;;;10.45;9.07;;;21.00;98.40;;;;;;6215633;23;20013;-81
2023/06/07 01:19:03;;;;;;;13.68;9.57;;;21.00;98.40;;;;;;6216032;23;20060;-81
2023/06/07 01:21:30;;;;;;;13.45;9.75;;;21.00;98.50;;;;;;6214942;23;20001;-81
2023/06/07 01:23:56;;;;;;;8.88;8.02;;;21.00;98.40;;;;;;6215336;23;20008;-81
2023/06/07 01:26:26;;;;;;;11.80;8.48;;;21.00;98.40;;;;;;6215361;23;20084;-81
2023/06/07 01:28:54;;;;;;;10.45;9.15;;;21.00;98.40;;;;;;6215607;23;20000;-81
2023/06/07 01:31:22;;;;;;;11.82;9.30;;;21.00;98.30;;;;;;6215700;23;20360;-81
2023/06/07 01:33:49;;;;;;;10.02;8.90;;;21.00;98.30;;;;;;6189414;23;20000;-81
2023/06/07 01:36:15;;;;;;;9.95;8.60;;;21.00;98.30;;;;;;6216069;23;20005;-81
2023/06/07 01:38:43;;;;;;;10.88;9.05;;;21.00;98.10;;;;;;6216014;23;20010;-81
2023/06/07 01:41:10;;;;;;;10.50;9.40;;;20.90;98.20;;;;;;6215757;23;20363;-81
2023/06/07 01:43:37;;;;;;;10.77;9.23;;;20.90;98.20;;;;;;6215868;23;20406;-81
2023/06/07 01:46:03;;;;;;;10.77;9.68;;;20.80;98.20;;;;;;6215920;23;20389;-81
2023/06/07 01:48:29;;;;;;;10.52;8.43;;;20.80;98.20;;;;;;6215858;23;20312;-81
2023/06/07 01:50:55;;;;;;;11.32;8.15;;;20.80;98.20;;;;;;6189715;23;20000;-81
2023/06/07 01:53:20;;;;;;;11.65;9.75;;;20.80;98.20;;;;;;6189678;23;20046;-81
2023/06/07 01:55:57;;;;;;;10.50;9.48;;;20.80;98.20;;;;;;6215329;23;20051;-81
2023/06/07 01:58:37;;;;;;;10.95;9.25;;;20.80;98.20;;;;;;6188644;23;20005;-80
2023/06/07 02:01:14;;;;;;;9.70;8.60;;;20.80;98.20;;;;;;6215439;23;20007;-80
2023/06/07 02:03:43;;;;;;;10.07;8.20;;;20.80;98.20;;;;;;6214588;23;20055;-81
2023/06/07 02:06:13;;;;;;;10.18;8.95;;;20.80;98.20;;;;;;6215171;23;20424;-81
2023/06/07 02:08:52;;;;;;;10.20;8.82;;;20.80;98.20;;;;;;6214871;23;20004;-81
2023/06/07 02:11:21;;;;;;;10.27;8.23;;;20.70;98.10;;;;;;6215180;23;20016;-81
2023/06/07 02:13:49;;;;;;;10.20;9.02;;;20.70;98.00;;;;;;6214984;23;20007;-81
2023/06/07 02:16:15;;;;;;;9.35;8.45;;;20.60;97.90;;;;;;6214959;23;20012;-81
2023/06/07 02:18:41;;;;;;;10.85;9.10;;;20.60;98.00;;;;;;6215004;23;20004;-80
2023/06/07 02:21:10;;;;;;;8.98;8.10;;;20.50;98.00;;;;;;6215582;23;19997;-80
2023/06/07 02:23:37;;;;;;;9.48;8.13;;;20.40;98.00;;;;;;6215599;23;20004;-81
2023/06/07 02:26:03;;;;;;;7.97;7.18;;;20.30;98.10;;;;;;6215405;23;20091;-81
2023/06/07 02:28:29;;;;;;;9.20;7.55;;;20.30;98.30;;;;;;6214949;23;20024;-81
2023/06/07 02:30:57;;;;;;;8.10;7.28;;;20.30;98.40;;;;;;6214881;23;20342;-81
2023/06/07 02:33:26;;;;;;;9.77;8.07;;;20.20;98.40;;;;;;6214989;23;20003;-81
2023/06/07 02:35:52;;;;;;;8.63;7.78;;;20.20;98.50;;;;;;6215451;23;20430;-82
2023/06/07 02:38:18;;;;;;;8.48;7.57;;;20.20;98.50;;;;;;6214478;23;20076;-82
2023/06/07 02:40:43;;;;;;;13.18;9.32;;;20.10;98.50;;;;;;6214503;23;20050;-82
2023/06/07 02:43:09;;;;;;;9.90;8.30;;;20.10;98.60;;;;;;6215058;23;20415;-82
2023/06/07 02:45:35;;;;;;;10.57;9.05;;;20.10;98.60;;;;;;6214558;23;20742;-82
2023/06/07 02:48:01;;;;;;;11.88;8.13;;;20.10;98.60;;;;;;6214385;23;20027;-82
2023/06/07 02:50:27;;;;;;;10.82;9.07;;;20.10;98.70;;;;;;6214325;23;20390;-82
2023/06/07 02:52:52;;;;;;;9.95;8.95;;;20.10;98.70;;;;;;6214803;23;20409;-82
2023/06/07 02:55:18;;;;;;;11.57;9.00;;;20.10;98.70;;;;;;6214423;23;20415;-81
2023/06/07 02:57:44;;;;;;;10.95;9.60;;;20.10;98.60;;;;;;6214768;23;20080;-81
2023/06/07 03:00:11;;;;;;;9.55;8.55;;;20.10;98.60;;;;;;6215085;23;20005;-81
2023/06/07 03:02:37;;;;;;;11.20;9.00;;;20.20;98.60;;;;;;6213072;23;20004;-81
2023/06/07 03:05:04;;;;;;;9.70;8.55;;;20.20;98.50;;;;;;6214852;23;20005;-81
2023/06/07 03:07:32;;;;;;;10.27;8.82;;;20.30;98.50;;;;;;6214621;23;20008;-81
2023/06/07 03:09:58;;;;;;;10.50;9.27;;;20.30;98.40;;;;;;6215060;23;19997;-81
2023/06/07 03:12:24;;;;;;;11.25;8.90;;;20.30;98.30;;;;;;6213691;23;20480;-80
2023/06/07 03:14:49;;;;;;;9.75;8.48;;;20.30;98.20;;;;;;6214196;23;20005;-80
2023/06/07 03:17:17;;;;;;;11.85;9.85;;;20.30;98.10;;;;;;6216258;23;20018;-80
2023/06/07 03:19:42;;;;;;;10.93;9.80;;;20.20;98.10;;;;;;6218547;23;19997;-80
2023/06/07 03:22:08;;;;;;;10.07;9.05;;;20.30;98.10;;;;;;6217545;23;20004;-80
2023/06/07 03:24:36;;;;;;;10.35;9.25;;;20.30;98.10;;;;;;6218341;23;20320;-80
2023/06/07 03:27:03;;;;;;;10.10;9.00;;;20.30;98.00;;;;;;6217848;23;20059;-80
2023/06/07 03:29:30;;;;;;;11.68;9.75;;;20.30;98.00;;;;;;6218915;23;20008;-80
2023/06/07 03:31:56;;;;;;;10.23;8.75;;;20.30;98.00;;;;;;6190044;23;20028;-80
2023/06/07 03:34:22;;;;;;;9.82;8.07;;;20.30;97.90;;;;;;6218525;23;20003;-80
2023/06/07 03:36:48;;;;;;;11.05;9.13;;;20.30;97.80;;;;;;6218678;23;20001;-80
2023/06/07 03:39:14;;;;;;;10.02;8.68;;;20.30;97.80;;;;;;6218666;23;20314;-81
2023/06/07 03:41:40;;;;;;;9.57;8.23;;;20.30;97.80;;;;;;6218687;23;20001;-81
2023/06/07 03:44:05;;;;;;;10.27;8.00;;;20.30;97.80;;;;;;6218450;23;20405;-81
2023/06/07 03:46:31;;;;;;;9.52;7.97;;;20.30;97.70;;;;;;6218159;23;20016;-80
2023/06/07 03:48:57;;;;;;;10.95;8.15;;;20.30;97.70;;;;;;6218636;23;20002;-80
2023/06/07 03:51:22;;;;;;;9.32;8.43;;;20.20;97.70;;;;;;6218407;23;20126;-81
2023/06/07 03:53:48;;;;;;;9.38;8.30;;;20.20;97.70;;;;;;6218640;23;20024;-81
2023/06/07 03:56:14;;;;;;;12.55;9.75;;;20.20;97.70;;;;;;6217703;23;20075;-81
2023/06/07 03:58:40;;;;;;;10.30;7.50;;;20.20;97.70;;;;;;6192601;23;20000;-81
2023/06/07 04:01:06;;;;;;;12.73;10.77;;;20.10;97.90;;;;;;6216943;23;20001;-80
2023/06/07 04:03:32;;;;;;;10.45;8.10;;;20.10;97.80;;;;;;6215025;23;20000;-80
2023/06/07 04:05:59;;;;;;;9.00;8.05;;;20.10;97.80;;;;;;6215452;23;19996;-80
2023/06/07 04:08:25;;;;;;;12.07;8.85;;;20.10;97.80;;;;;;6190804;23;20272;-80
2023/06/07 04:10:52;;;;;;;10.73;8.70;;;20.10;97.90;;;;;;6217736;23;20001;-80
2023/06/07 04:13:18;;;;;;;10.55;8.65;;;20.10;97.90;;;;;;6217417;23;20004;-80
2023/06/07 04:15:45;;;;;;;9.43;8.45;;;20.10;98.00;;;;;;6216918;23;20398;-80
2023/06/07 04:18:11;;;;;;;9.93;8.90;;;20.10;98.00;;;;;;6189160;23;20478;-79
2023/06/07 04:20:41;;;;;;;12.38;9.27;;;20.10;98.00;;;;;;6217471;23;20375;-79
2023/06/07 04:23:07;;;;;;;11.85;9.90;;;20.10;98.00;;;;;;6190602;23;20008;-79
2023/06/07 04:25:33;;;;;;;10.75;8.90;;;20.00;98.00;;;;;;6217343;23;20005;-79
2023/06/07 04:28:00;;;;;;;10.55;8.80;;;20.10;98.10;;;;;;6215728;23;20008;-79
2023/06/07 04:30:34;;;;;;;10.70;9.00;;;20.10;98.10;;;;;;6216109;23;20008;-79
2023/06/07 04:33:09;;;;;;;9.30;8.30;;;20.10;98.20;;;;;;6216705;23;20032;-79
2023/06/07 04:35:41;;;;;;;14.15;9.15;;;20.10;98.20;;;;;;6215867;23;20047;-79
2023/06/07 04:38:07;;;;;;;10.10;9.10;;;20.20;98.20;;;;;;6215681;23;20007;-80
2023/06/07 04:40:40;;;;;;;10.07;8.43;;;20.20;98.10;;;;;;6215795;23;20003;-80
2023/06/07 04:43:08;;;;;;;10.05;8.80;;;20.30;98.00;;;;;;6215699;23;20062;-79
2023/06/07 04:45:39;;;;;;;12.40;9.07;;;20.30;98.00;;;;;;6215739;23;20001;-80
2023/06/07 04:48:07;;;;;;;9.60;8.57;;;20.30;98.00;;;;;;6215994;23;20011;-80
2023/06/07 04:50:33;;;;;;;9.07;8.02;;;20.30;97.90;;;;;;6216414;23;20011;-81
2023/06/07 04:53:03;;;;;;;10.32;8.05;;;20.30;98.00;;;;;;6216393;23;20408;-81
2023/06/07 04:55:35;;;;;;;8.10;7.17;;;20.40;98.00;;;;;;6189495;23;20088;-81
2023/06/07 04:58:06;;;;;;;9.88;8.35;;;20.50;97.90;;;;;;6216080;23;20222;-81
2023/06/07 05:00:33;;;;;;;8.82;7.68;;;20.50;97.90;;;;;;6216408;23;20008;-81
2023/06/07 05:03:06;;;;;;;8.25;7.40;;;20.50;97.90;;;;;;6216404;23;20011;-81
2023/06/07 05:05:35;;;;;;;9.48;7.38;;;20.60;97.80;;;;;;6216505;23;20011;-82
2023/06/07 05:08:01;;;;;;;8.27;7.10;;;20.60;97.80;;;;;;6189757;23;20818;-82
2023/06/07 05:10:27;;;;;;;7.18;6.38;;;20.60;97.80;;;;;;6219119;23;20009;-80
2023/06/07 05:12:53;;;;;;;10.27;6.07;;;20.70;97.60;;;;;;6216630;23;20051;-80
2023/06/07 05:15:21;;;;;;;7.65;6.28;;;20.70;97.40;;;;;;6189873;23;20013;-80
2023/06/07 05:17:48;;;;;;;6.35;5.40;;;20.70;97.40;;;;;;6216571;23;19996;-80
2023/06/07 05:20:15;;;;;;;6.95;5.60;;;20.70;97.30;;;;;;6216359;23;20024;-80
2023/06/07 05:22:42;;;;;;;7.65;5.45;;;20.70;97.30;;;;;;6215929;23;20008;-80
2023/06/07 05:25:09;;;;;;;7.28;5.40;;;20.80;97.00;;;;;;6216679;23;20005;-79
2023/06/07 05:27:36;;;;;;;7.70;5.68;;;20.80;97.00;;;;;;6216684;23;20015;-80
2023/06/07 05:30:04;;;;;;;7.07;4.60;;;20.70;97.00;;;;;;6217953;23;20005;-79
2023/06/07 05:32:30;;;;;;;8.35;5.72;;;20.80;97.00;;;;;;6216363;23;20009;-79
2023/06/07 05:34:57;;;;;;;7.93;5.28;;;20.80;97.00;;;;;;6215954;23;19996;-80
2023/06/07 05:37:24;;;;;;;5.78;4.45;;;20.90;97.10;;;;;;6189353;23;20358;-80
2023/06/07 05:39:50;;;;;;;6.55;5.28;;;20.90;97.10;;;;;;6216424;23;20028;-80
2023/06/07 05:42:16;;;;;;;7.75;5.22;;;21.00;96.90;;;;;;6187838;23;20004;-80
2023/06/07 05:44:45;;;;;;;8.10;6.53;;;20.90;96.70;;;;;;6215688;23;20367;-80
2023/06/07 05:47:11;;;;;;;8.20;5.30;;;20.90;96.70;;;;;;6215615;23;20012;-80
2023/06/07 05:49:36;;;;;;;7.38;5.10;;;20.90;96.70;;;;;;6216161;23;20004;-80
2023/06/07 05:52:02;;;;;;;6.63;5.28;;;20.90;96.80;;;;;;6215671;23;20000;-80
2023/06/07 05:54:28;;;;;;;8.88;4.40;;;20.90;96.70;;;;;;6215939;23;20003;-79
2023/06/07 05:56:54;;;;;;;7.68;5.60;;;20.90;96.80;;;;;;6190832;23;20008;-79
2023/06/07 05:59:20;;;;;;;6.68;4.72;;;20.90;96.80;;;;;;6190638;23;20001;-80
2023/06/07 06:01:46;;;;;;;4.43;3.35;;;20.90;96.70;;;;;;6215098;23;20000;-78
2023/06/07 06:04:12;;;;;;;3.70;3.25;;;20.90;96.60;;;;;;6215420;23;20009;-79
2023/06/07 06:06:38;;;;;;;4.32;3.50;;;20.90;96.70;;;;;;6215939;23;20076;-78
2023/06/07 06:09:07;;;;;;;3.63;3.33;;;21.00;96.70;;;;;;6215617;23;20024;-78
2023/06/07 06:11:33;;;;;;;3.40;2.78;;;21.00;96.60;;;;;;6214722;23;20060;-79
2023/06/07 06:13:58;;;;;;;3.58;3.28;;;21.10;96.50;;;;;;6214595;23;19993;-79
2023/06/07 06:16:24;;;;;;;3.50;2.90;;;21.20;96.50;;;;;;6215686;23;20012;-81
2023/06/07 06:18:50;;;;;;;4.60;3.08;;;21.20;96.40;;;;;;6188239;23;20012;-80
2023/06/07 06:21:15;;;;;;;5.28;3.22;;;21.20;96.30;;;;;;6214775;23;20427;-79
2023/06/07 06:23:41;;;;;;;3.97;2.85;;;21.30;96.30;;;;;;6215353;23;20001;-80
2023/06/07 06:26:07;;;;;;;5.60;3.22;;;21.30;96.20;;;;;;6215610;23;19996;-80
2023/06/07 06:28:32;;;;;;;6.93;2.88;;;21.30;96.20;;;;;;6215552;23;20384;-80
2023/06/07 06:31:01;;;;;;;4.95;3.53;;;21.40;96.10;;;;;;6215540;23;20008;-80
2023/06/07 06:33:27;;;;;;;3.40;3.05;;;21.50;96.10;;;;;;6215543;23;20011;-81
2023/06/07 06:35:53;;;;;;;4.63;3.30;;;21.50;96.20;;;;;;6216036;23;20000;-80
2023/06/07 06:38:19;;;;;;;5.63;3.45;;;21.50;96.20;;;;;;6214569;23;20435;-80
2023/06/07 06:40:45;;;;;;;3.33;3.03;;;21.60;96.40;;;;;;6215700;23;20005;-79
2023/06/07 06:43:11;;;;;;;4.78;3.72;;;21.60;96.00;;;;;;6215467;23;20012;-80
2023/06/07 06:45:38;;;;;;;4.82;3.58;;;21.60;95.80;;;;;;6215991;23;20043;-80
2023/06/07 06:48:05;;;;;;;4.03;3.13;;;21.60;96.00;;;;;;6214952;23;20163;-82
2023/06/07 06:50:31;;;;;;;4.45;3.25;;;21.60;96.00;;;;;;6215496;23;20012;-79
2023/06/07 06:52:57;;;;;;;3.47;3.17;;;21.60;96.10;;;;;;6215062;23;20028;-80
2023/06/07 06:55:23;;;;;;;3.90;3.47;;;21.70;96.20;;;;;;6215949;23;19997;-80
2023/06/07 06:57:49;;;;;;;4.53;3.55;;;21.70;96.10;;;;;;6215163;23;20000;-80
2023/06/07 07:00:15;;;;;;;4.88;2.90;;;21.80;96.00;;;;;;6215853;23;19996;-80
2023/06/07 07:02:41;;;;;;;3.63;3.13;;;21.80;95.90;;;;;;6215457;23;20000;-80
2023/06/07 07:05:07;;;;;;;4.65;2.63;;;21.90;95.90;;;;;;6215219;23;20127;-80
2023/06/07 07:07:33;;;;;;;4.82;3.17;;;22.00;95.90;;;;;;6214262;23;20051;-79
2023/06/07 07:09:59;;;;;;;5.18;3.67;;;22.00;95.80;;;;;;6208628;23;20000;-78
2023/06/07 07:12:25;;;;;;;3.35;2.53;;;22.10;95.40;;;;;;6214232;23;20004;-78
2023/06/07 07:14:51;;;;;;;4.40;3.63;;;22.20;95.20;;;;;;6212827;23;20092;-78
2023/06/07 07:17:17;;;;;;;4.32;3.10;;;22.20;94.80;;;;;;6214983;23;20024;-78
2023/06/07 07:19:43;;;;;;;2.92;2.63;;;22.20;94.70;;;;;;6187339;23;20288;-78
2023/06/07 07:22:09;;;;;;;3.17;2.58;;;22.30;94.80;;;;;;6215274;23;20015;-78
2023/06/07 07:24:35;;;;;;;2.97;2.67;;;22.30;94.90;;;;;;6215274;23;20000;-78
2023/06/07 07:27:01;;;;;;;5.47;3.00;;;22.40;95.00;;;;;;6188451;23;20016;-78
2023/06/07 07:29:27;;;;;;;4.60;2.85;;;22.50;94.70;;;;;;6214056;23;20072;-79
2023/06/07 07:37:02;;;;;;;2.45;2.25;;;22.70;94.10;;;;;;6184940;23;20029;-79
2023/06/07 07:39:29;;;;;;;4.43;2.40;;;22.70;93.80;;;;;;6184759;23;20418;-79
2023/06/07 07:41:55;;;;;;;2.53;2.20;;;22.70;93.60;;;;;;6183772;23;20008;-80
2023/06/07 07:44:20;;;;;;;2.90;2.15;;;22.80;93.50;;;;;;6158581;23;20083;-79
2023/06/07 07:46:46;;;;;;;3.42;1.80;;;22.80;93.80;;;;;;6184938;23;20005;-78
2023/06/07 07:49:12;;;;;;;3.55;2.53;;;22.90;93.80;;;;;;6183489;23;20033;-80
2023/06/07 07:51:38;;;;;;;3.15;2.08;;;22.90;93.70;;;;;;6182991;23;20056;-80
2023/06/07 07:54:04;;;;;;;2.42;2.03;;;23.00;93.40;;;;;;6185148;23;19997;-80
2023/06/07 07:56:30;;;;;;;4.35;3.20;;;23.00;93.50;;;;;;6184558;23;20013;-80
2023/06/07 07:58:55;;;;;;;3.53;1.95;;;23.10;93.60;;;;;;6182308;23;20005;-79
2023/06/07 08:01:22;;;;;;;2.88;1.90;;;23.20;93.40;;;;;;6183974;23;19997;-80
2023/06/07 08:03:48;;;;;;;2.78;2.15;;;23.30;93.00;;;;;;6184899;23;20048;-80
2023/06/07 08:06:14;;;;;;;3.45;2.03;;;23.30;93.20;;;;;;6186838;23;20068;-80
2023/06/07 08:08:40;;;;;;;2.58;1.80;;;23.50;93.10;;;;;;6185771;23;20407;-80
2023/06/07 08:11:06;;;;;;;2.28;1.55;;;23.60;92.70;;;;;;6159660;23;20001;-80
2023/06/07 08:13:31;;;;;;;2.10;1.75;;;23.70;92.40;;;;;;6158386;23;20024;-79
2023/06/07 08:15:57;;;;;;;2.72;1.70;;;23.80;91.70;;;;;;6160015;23;20008;-79
2023/06/07 08:18:23;;;;;;;2.13;1.50;;;23.90;91.70;;;;;;6185699;23;20001;-80
2023/06/07 08:20:50;;;;;;;1.92;1.42;;;23.90;91.40;;;;;;6185338;23;20076;-79
2023/06/07 08:23:15;;;;;;;2.10;1.70;;;23.90;91.20;;;;;;6186177;23;20001;-81
2023/06/07 08:25:41;;;;;;;1.85;1.40;;;23.80;91.20;;;;;;6185502;23;20008;-81
2023/06/07 08:28:07;;;;;;;1.95;1.30;;;23.90;91.50;;;;;;6159938;23;20469;-82
2023/06/07 08:30:33;;;;;;;2.97;1.30;;;23.90;91.70;;;;;;6185336;23;20084;-81
2023/06/07 08:32:59;;;;;;;1.95;1.50;;;24.00;91.10;;;;;;6186099;23;20040;-81
2023/06/07 08:35:25;;;;;;;1.30;1.20;;;24.10;91.30;;;;;;6159902;23;20331;-81
2023/06/07 08:37:51;;;;;;;1.20;1.00;;;24.10;91.20;;;;;;6159618;23;20001;-81
2023/06/07 08:40:18;;;;;;;1.95;1.20;;;24.20;91.50;;;;;;6186139;23;19997;-81
2023/06/07 08:42:44;;;;;;;1.30;1.20;;;24.40;91.30;;;;;;6185920;23;20005;-79
2023/06/07 08:45:10;;;;;;;2.40;1.30;;;24.40;90.70;;;;;;6186475;23;20001;-80
2023/06/07 08:47:37;;;;;;;1.77;1.40;;;24.50;90.70;;;;;;6187526;23;20327;-81
2023/06/07 08:50:03;;;;;;;1.52;1.30;;;24.60;90.50;;;;;;6159370;23;20412;-80
2023/06/07 08:52:30;;;;;;;2.08;1.17;;;24.70;90.20;;;;;;6185553;23;20075;-80
2023/06/07 08:55:02;;;;;;;1.75;1.58;;;24.70;89.80;;;;;;6185102;23;20004;-80
2023/06/07 08:57:30;;;;;;;3.28;1.50;;;24.80;90.20;;;;;;6185236;23;20295;-79
2023/06/07 08:59:57;;;;;;;2.22;1.05;;;24.80;88.90;;;;;;6185145;23;20008;-81
2023/06/07 09:02:25;;;;;;;3.08;1.30;;;24.90;87.80;;;;;;6185167;23;19997;-80
2023/06/07 09:04:51;;;;;;;3.40;1.40;;;24.80;88.20;;;;;;6185905;23;20009;-81
2023/06/07 09:07:17;;;;;;;3.35;1.20;;;24.90;89.70;;;;;;6160008;23;20037;-81
2023/06/07 09:09:43;;;;;;;1.40;1.23;;;25.00;89.30;;;;;;6184952;23;20029;-81
2023/06/07 09:12:13;;;;;;;2.10;1.10;;;25.10;90.00;;;;;;6186163;23;20076;-80
2023/06/07 09:14:39;;;;;;;1.00;0.93;;;25.30;90.10;;;;;;6185605;23;20001;-80
2023/06/07 09:17:05;;;;;;;1.48;1.00;;;25.40;89.00;;;;;;6186099;23;20001;-81
2023/06/07 09:19:31;;;;;;;1.50;1.40;;;25.40;88.20;;;;;;6162664;23;20446;-80
2023/06/07 09:21:58;;;;;;;2.30;1.10;;;25.50;87.90;;;;;;6164065;23;20005;-80
2023/06/07 09:24:31;;;;;;;2.17;1.10;;;25.50;87.90;;;;;;6185725;23;20001;-80
2023/06/07 09:26:58;;;;;;;2.28;1.33;;;25.40;86.90;;;;;;6183311;23;20001;-80
2023/06/07 09:29:27;;;;;;;2.47;1.48;;;25.40;86.90;;;;;;6184530;23;20005;-80
2023/06/07 09:31:54;;;;;;;1.85;1.63;;;25.30;87.10;;;;;;6158123;23;20033;-80
2023/06/07 09:34:22;;;;;;;2.30;1.55;;;25.20;87.00;;;;;;6158640;23;20045;-80
2023/06/07 09:36:53;;;;;;;4.75;2.05;;;25.10;86.80;;;;;;6157640;23;20466;-80
2023/06/07 09:39:27;;;;;;;2.38;1.67;;;25.10;87.00;;;;;;6155700;23;19997;-80
2023/06/07 09:41:54;;;;;;;2.85;1.52;;;25.00;87.40;;;;;;6155422;23;20010;-80
2023/06/07 09:44:30;;;;;;;1.80;1.40;;;25.00;86.70;;;;;;6129665;23;20017;-79
2023/06/07 09:46:58;;;;;;;2.53;1.80;;;25.00;87.00;;;;;;6155519;23;20499;-79
2023/06/07 09:49:27;;;;;;;2.03;1.50;;;25.00;86.80;;;;;;6155519;23;20002;-81
2023/06/07 09:51:53;;;;;;;3.53;1.67;;;25.10;86.90;;;;;;6154573;23;20002;-80
2023/06/07 09:54:36;;;;;;;3.63;1.50;;;25.10;87.20;;;;;;6128528;23;20088;-79
2023/06/07 09:57:22;;;;;;;1.13;1.02;;;25.40;87.50;;;;;;6155302;23;20001;-79
2023/06/07 10:00:00;;;;;;;1.17;0.80;;;25.50;86.70;;;;;;6138609;23;20006;-79
2023/06/07 10:02:29;;;;;;;1.55;0.85;;;25.80;86.00;;;;;;6155462;23;20009;-81
2023/06/07 10:04:56;;;;;;;1.40;0.90;;;26.00;85.50;;;;;;6155980;23;20013;-79
2023/06/07 10:07:23;;;;;;;2.20;1.00;;;26.20;85.30;;;;;;6130396;23;20113;-79
2023/06/07 10:09:53;;;;;;;2.80;0.90;;;26.40;85.00;;;;;;6155003;23;20422;-78
2023/06/07 10:12:24;;;;;;;2.22;1.27;;;26.50;84.40;;;;;;6154840;23;20057;-79
2023/06/07 10:14:53;;;;;;;2.22;1.20;;;26.70;84.20;;;;;;6155238;23;19998;-79
2023/06/07 10:17:23;;;;;;;1.45;1.02;;;26.80;83.40;;;;;;6130016;23;20452;-80
2023/06/07 10:19:49;;;;;;;;;;;26.90;83.10;;;;;;6154640;23;20002;-80
2023/06/07 10:22:19;;;;;;;2.65;1.65;;;27.00;82.80;;;;;;6154602;23;20299;-79
2023/06/07 10:25:15;;;;;;;2.40;1.67;;;27.00;83.00;;;;;;6156056;23;20009;-79
2023/06/07 10:28:04;;;;;;;2.00;1.70;;;27.00;82.00;;;;;;6156466;23;20071;-79
2023/06/07 10:30:32;;;;;;;1.58;1.38;;;27.00;82.10;;;;;;6156086;23;20006;-81
2023/06/07 10:32:58;;;;;;;3.03;1.58;;;27.00;82.80;;;;;;6156624;23;20001;-79
2023/06/07 10:35:25;;;;;;;3.05;1.88;;;27.10;83.20;;;;;;6156398;23;20021;-80
2023/06/07 10:37:53;;;;;;;3.65;1.60;;;27.20;82.10;;;;;;6156353;23;20368;-79
2023/06/07 10:40:22;;;;;;;4.03;1.60;;;27.30;81.70;;;;;;6155741;23;20006;-79
2023/06/07 10:42:49;;;;;;;3.38;1.70;;;27.40;81.70;;;;;;6155593;23;20002;-80
2023/06/07 10:45:19;;;;;;;3.10;1.38;;;27.50;81.50;;;;;;6155788;23;20001;-79
2023/06/07 10:47:45;;;;;;;;;;;27.50;81.90;;;;;;6156530;23;20412;-79
2023/06/07 10:50:26;;;;;;;2.95;1.85;;;27.50;81.50;;;;;;6154932;23;19928;-79
2023/06/07 10:52:57;;;;;;;2.33;1.60;;;27.60;81.20;;;;;;6154665;23;20009;-79
2023/06/07 10:55:26;;;;;;;3.13;2.05;;;27.70;81.20;;;;;;6155323;23;20024;-79
2023/06/07 10:57:53;;;;;;;1.77;1.43;;;27.90;80.00;;;;;;6129403;23;20028;-80
2023/06/07 11:00:35;;;;;;;1.70;1.40;;;28.10;80.80;;;;;;6154445;23;20666;-80
2023/06/07 11:03:08;;;;;;;1.35;1.20;;;28.20;80.80;;;;;;6155182;23;20010;-79
2023/06/07 11:05:54;;;;;;;2.53;1.35;;;28.40;80.60;;;;;;6129721;23;20005;-79
2023/06/07 11:08:38;;;;;;;1.88;1.23;;;28.50;79.80;;;;;;6153540;23;20443;-80
2023/06/07 11:11:25;;;;;;;3.15;1.42;;;28.60;79.70;;;;;;6154068;23;20013;-78
2023/06/07 11:13:54;;;;;;;1.95;1.27;;;28.70;79.10;;;;;;6154168;23;20016;-80
2023/06/07 11:16:23;;;;;;;1.52;1.40;;;28.90;78.60;;;;;;6156106;23;20060;-80
2023/06/07 11:18:56;;;;;;;3.00;1.70;;;29.10;78.10;;;;;;6155592;23;20435;-79
2023/06/07 11:21:26;;;;;;;1.45;1.35;;;29.20;76.50;;;;;;6155772;23;20404;-80
2023/06/07 11:24:11;;;;;;;2.92;1.50;;;29.30;77.40;;;;;;6156397;23;20002;-80
2023/06/07 11:26:37;;;;;;;2.88;1.20;;;29.40;76.50;;;;;;6155861;23;20005;-80
2023/06/07 11:29:05;;;;;;;1.30;1.15;;;29.50;77.40;;;;;;6153768;23;20635;-79
2023/06/07 11:31:31;;;;;;;3.05;1.60;;;29.60;76.60;;;;;;6154258;23;20084;-81
2023/06/07 11:33:57;;;;;;;2.33;1.33;;;29.80;76.60;;;;;;6156125;23;20503;-81
2023/06/07 11:36:23;;;;;;;1.50;1.40;;;30.00;76.00;;;;;;6155122;23;20037;-81
2023/06/07 11:38:49;;;;;;;1.95;1.50;;;30.30;75.90;;;;;;6156936;23;20002;-81
2023/06/07 11:41:15;;;;;;;1.75;1.10;;;30.50;74.40;;;;;;6157391;23;19998;-81
2023/06/07 11:43:41;;;;;;;2.92;1.33;;;30.70;74.20;;;;;;6157690;23;20055;-81
2023/06/07 11:46:07;;;;;;;1.40;1.27;;;30.80;73.00;;;;;;6131209;23;20427;-81
2023/06/07 11:48:33;;;;;;;1.80;1.10;;;30.90;72.70;;;;;;6156777;23;20005;-81
2023/06/07 11:51:00;;;;;;;1.88;1.27;;;31.10;71.50;;;;;;6157477;23;20073;-80
2023/06/07 11:53:28;;;;;;;1.52;1.20;;;31.20;71.80;;;;;;6157804;23;20005;-80
2023/06/07 11:55:55;;;;;;;1.23;1.13;;;31.30;70.80;;;;;;6155960;23;20032;-81
2023/06/07 11:58:22;;;;;;;1.27;1.08;;;31.40;71.10;;;;;;6156810;23;20029;-80
2023/06/07 12:00:49;;;;;;;2.65;1.30;;;31.50;70.60;;;;;;6131444;23;20002;-80
2023/06/07 12:03:16;;;;;;;2.35;1.20;;;31.60;70.40;;;;;;6131257;23;20012;-80
2023/06/07 12:05:43;;;;;;;1.88;1.20;;;31.70;69.10;;;;;;6156780;23;20005;-80
2023/06/07 12:08:15;;;;;;;1.33;0.90;;;31.80;69.30;;;;;;6129803;23;20005;-81
2023/06/07 12:10:41;;;;;;;1.27;1.02;;;31.90;69.40;;;;;;6156666;23;20028;-80
2023/06/07 12:13:15;;;;;;;1.20;1.10;;;32.00;68.90;;;;;;6155593;23;20084;-80
2023/06/07 12:15:55;;;;;;;2.08;1.30;;;32.20;68.00;;;;;;6156345;23;20002;-81
2023/06/07 12:18:27;;;;;;;;;;;32.30;67.70;;;;;;6130990;23;20009;-80
2023/06/07 12:21:06;;;;;;;2.03;1.15;;;32.50;67.10;;;;;;6131009;23;19900;-80
2023/06/07 12:23:32;;;;;;;2.08;1.10;;;32.60;66.70;;;;;;6156520;23;20005;-80
2023/06/07 12:26:10;;;;;;;1.60;1.25;;;32.70;66.50;;;;;;6156484;23;20025;-80
2023/06/07 12:28:36;;;;;;;1.67;1.20;;;32.90;64.60;;;;;;6156573;23;20012;-80
2023/06/07 12:31:03;;;;;;;1.75;1.20;;;33.00;65.10;;;;;;6156922;23;20002;-80
2023/06/07 12:33:29;;;;;;;1.65;1.25;;;33.10;64.20;;;;;;6130835;23;20006;-81
2023/06/07 12:35:58;;;;;;;3.38;1.40;;;33.10;63.90;;;;;;6171886;23;20506;-79
2023/06/07 12:38:27;;;;;;;1.25;1.10;;;33.20;63.30;;;;;;6186549;23;20001;-80
2023/06/07 12:40:53;;;;;;;1.33;1.03;;;33.30;63.20;;;;;;6181617;23;20076;-80
2023/06/07 12:43:18;;;;;;;3.03;1.20;;;33.40;63.80;;;;;;6186424;23;20032;-80
2023/06/07 12:45:44;;;;;;;1.52;1.10;;;33.50;62.90;;;;;;6187027;23;20458;-80
2023/06/07 12:48:10;;;;;;;2.20;1.40;;;33.70;62.80;;;;;;6186738;23;20009;-80
2023/06/07 12:50:36;;;;;;;0.85;0.80;;;33.80;62.40;;;;;;6159664;23;20005;-80